createdAt,value
2023-04-18T00:00:14.000Z,1031.73
2023-04-18T00:01:15.000Z,1031.66
2023-04-18T00:02:15.000Z,1031.68
2023-04-18T00:03:16.000Z,1031.7
2023-04-18T00:04:16.000Z,1031.63
2023-04-18T00:05:16.000Z,1031.65
2023-04-18T00:06:17.000Z,1031.64
2023-04-18T00:07:17.000Z,1031.7
2023-04-18T00:08:17.000Z,1031.69
2023-04-18T00:09:18.000Z,1031.68
2023-04-18T00:10:18.000Z,1031.65
2023-04-18T00:11:19.000Z,1031.73
2023-04-18T00:12:19.000Z,1031.74
2023-04-18T00:13:19.000Z,1031.7
2023-04-18T00:14:20.000Z,1031.72
2023-04-18T00:15:20.000Z,1031.7
2023-04-18T00:16:20.000Z,1031.73
2023-04-18T00:17:21.000Z,1031.75
2023-04-18T00:18:21.000Z,1031.75
2023-04-18T00:19:22.000Z,1031.77
2023-04-18T00:20:22.000Z,1031.74
2023-04-18T00:21:22.000Z,1031.78
2023-04-18T00:22:23.000Z,1031.78
2023-04-18T00:23:23.000Z,1031.71
2023-04-18T00:24:24.000Z,1031.74
2023-04-18T00:25:24.000Z,1031.73
2023-04-18T00:26:24.000Z,1031.72
2023-04-18T00:27:25.000Z,1031.73
2023-04-18T00:28:25.000Z,1031.73
2023-04-18T00:29:25.000Z,1031.69
2023-04-18T00:30:26.000Z,1031.7
2023-04-18T00:31:26.000Z,1031.71
2023-04-18T00:32:27.000Z,1031.69
2023-04-18T00:33:27.000Z,1031.68
2023-04-18T00:34:27.000Z,1031.66
2023-04-18T00:35:28.000Z,1031.65
2023-04-18T00:36:28.000Z,1031.6
2023-04-18T00:37:28.000Z,1031.56
2023-04-18T00:38:29.000Z,1031.58
2023-04-18T00:39:29.000Z,1031.6
2023-04-18T00:40:29.000Z,1031.63
2023-04-18T00:41:30.000Z,1031.61
2023-04-18T00:42:30.000Z,1031.63
2023-04-18T00:43:31.000Z,1031.59
2023-04-18T00:44:31.000Z,1031.57
2023-04-18T00:45:31.000Z,1031.61
2023-04-18T00:46:32.000Z,1031.61
2023-04-18T00:47:32.000Z,1031.63
2023-04-18T00:48:32.000Z,1031.56
2023-04-18T00:49:33.000Z,1031.59
2023-04-18T00:50:33.000Z,1031.6
2023-04-18T00:51:33.000Z,1031.64
2023-04-18T00:52:34.000Z,1031.61
2023-04-18T00:53:34.000Z,1031.63
2023-04-18T00:54:35.000Z,1031.59
2023-04-18T00:55:35.000Z,1031.53
2023-04-18T00:56:35.000Z,1031.58
2023-04-18T00:57:36.000Z,1031.56
2023-04-18T00:58:36.000Z,1031.58
2023-04-18T00:59:36.000Z,1031.59
2023-04-18T01:00:37.000Z,1031.59
2023-04-18T01:01:37.000Z,1031.55
2023-04-18T01:02:37.000Z,1031.47
2023-04-18T01:03:38.000Z,1031.48
2023-04-18T01:04:38.000Z,1031.46
2023-04-18T01:05:39.000Z,1031.51
2023-04-18T01:06:39.000Z,1031.48
2023-04-18T01:07:39.000Z,1031.5
2023-04-18T01:08:40.000Z,1031.5
2023-04-18T01:09:40.000Z,1031.5
2023-04-18T01:10:41.000Z,1031.47
2023-04-18T01:11:41.000Z,1031.46
2023-04-18T01:12:41.000Z,1031.47
2023-04-18T01:13:42.000Z,1031.47
2023-04-18T01:14:42.000Z,1031.47
2023-04-18T01:15:43.000Z,1031.45
2023-04-18T01:16:43.000Z,1031.42
2023-04-18T01:17:43.000Z,1031.46
2023-04-18T01:18:44.000Z,1031.45
2023-04-18T01:19:44.000Z,1031.48
2023-04-18T01:20:44.000Z,1031.52
2023-04-18T01:21:45.000Z,1031.47
2023-04-18T01:22:45.000Z,1031.47
2023-04-18T01:23:46.000Z,1031.46
2023-04-18T01:24:46.000Z,1031.52
2023-04-18T01:25:46.000Z,1031.42
2023-04-18T01:26:47.000Z,1031.44
2023-04-18T01:27:47.000Z,1031.41
2023-04-18T01:28:48.000Z,1031.39
2023-04-18T01:29:48.000Z,1031.41
2023-04-18T01:30:49.000Z,1031.43
2023-04-18T01:31:49.000Z,1031.42
2023-04-18T01:32:49.000Z,1031.4
2023-04-18T01:33:50.000Z,1031.45
2023-04-18T01:34:50.000Z,1031.45
2023-04-18T01:35:50.000Z,1031.42
2023-04-18T01:36:51.000Z,1031.45
2023-04-18T01:37:51.000Z,1031.41
2023-04-18T01:38:52.000Z,1031.42
2023-04-18T01:39:52.000Z,1031.43
2023-04-18T01:40:52.000Z,1031.4
2023-04-18T01:41:53.000Z,1031.4
2023-04-18T01:42:53.000Z,1031.47
2023-04-18T01:43:54.000Z,1031.49
2023-04-18T01:44:54.000Z,1031.39
2023-04-18T01:45:54.000Z,1031.43
2023-04-18T01:46:55.000Z,1031.39
2023-04-18T01:47:55.000Z,1031.41
2023-04-18T01:48:55.000Z,1031.4
2023-04-18T01:49:56.000Z,1031.39
2023-04-18T01:50:56.000Z,1031.37
2023-04-18T01:51:57.000Z,1031.38
2023-04-18T01:52:57.000Z,1031.33
2023-04-18T01:53:57.000Z,1031.33
2023-04-18T01:54:58.000Z,1031.36
2023-04-18T01:55:58.000Z,1031.39
2023-04-18T01:56:58.000Z,1031.4
2023-04-18T01:57:59.000Z,1031.38
2023-04-18T01:58:59.000Z,1031.33
2023-04-18T01:59:59.000Z,1031.38
2023-04-18T02:01:00.000Z,1031.32
2023-04-18T02:02:00.000Z,1031.34
2023-04-18T02:03:01.000Z,1031.33
2023-04-18T02:04:01.000Z,1031.34
2023-04-18T02:05:01.000Z,1031.36
2023-04-18T02:06:02.000Z,1031.34
2023-04-18T02:07:02.000Z,1031.35
2023-04-18T02:08:02.000Z,1031.36
2023-04-18T02:09:03.000Z,1031.37
2023-04-18T02:10:03.000Z,1031.33
2023-04-18T02:11:09.000Z,1031.35
2023-04-18T02:12:09.000Z,1031.39
2023-04-18T02:13:09.000Z,1031.38
2023-04-18T02:14:10.000Z,1031.35
2023-04-18T02:15:10.000Z,1031.34
2023-04-18T02:16:10.000Z,1031.32
2023-04-18T02:17:11.000Z,1031.42
2023-04-18T02:18:11.000Z,1031.39
2023-04-18T02:19:11.000Z,1031.4
2023-04-18T02:20:12.000Z,1031.39
2023-04-18T02:21:12.000Z,1031.42
2023-04-18T02:22:13.000Z,1031.4
2023-04-18T02:23:13.000Z,1031.43
2023-04-18T02:24:13.000Z,1031.4
2023-04-18T02:25:14.000Z,1031.43
2023-04-18T02:26:14.000Z,1031.51
2023-04-18T02:27:14.000Z,1031.5
2023-04-18T02:28:15.000Z,1031.47
2023-04-18T02:29:15.000Z,1031.41
2023-04-18T02:30:16.000Z,1031.44
2023-04-18T02:31:16.000Z,1031.45
2023-04-18T02:32:16.000Z,1031.47
2023-04-18T02:33:17.000Z,1031.49
2023-04-18T02:34:17.000Z,1031.47
2023-04-18T02:35:18.000Z,1031.42
2023-04-18T02:36:18.000Z,1031.48
2023-04-18T02:37:18.000Z,1031.45
2023-04-18T02:38:19.000Z,1031.46
2023-04-18T02:39:19.000Z,1031.48
2023-04-18T02:40:19.000Z,1031.42
2023-04-18T02:41:20.000Z,1031.45
2023-04-18T02:42:20.000Z,1031.51
2023-04-18T02:43:21.000Z,1031.44
2023-04-18T02:44:21.000Z,1031.47
2023-04-18T02:45:21.000Z,1031.42
2023-04-18T02:46:22.000Z,1031.4
2023-04-18T02:47:22.000Z,1031.46
2023-04-18T02:48:23.000Z,1031.42
2023-04-18T02:49:23.000Z,1031.43
2023-04-18T02:50:23.000Z,1031.39
2023-04-18T02:51:24.000Z,1031.46
2023-04-18T02:52:24.000Z,1031.46
2023-04-18T02:53:24.000Z,1031.45
2023-04-18T02:54:25.000Z,1031.46
2023-04-18T02:55:25.000Z,1031.41
2023-04-18T02:56:25.000Z,1031.43
2023-04-18T02:57:26.000Z,1031.46
2023-04-18T02:58:26.000Z,1031.47
2023-04-18T02:59:27.000Z,1031.43
2023-04-18T03:00:27.000Z,1031.41
2023-04-18T03:01:27.000Z,1031.43
2023-04-18T03:02:28.000Z,1031.5
2023-04-18T03:03:28.000Z,1031.47
2023-04-18T03:04:29.000Z,1031.47
2023-04-18T03:05:29.000Z,1031.48
2023-04-18T03:06:29.000Z,1031.44
2023-04-18T03:07:30.000Z,1031.47
2023-04-18T03:08:30.000Z,1031.47
2023-04-18T03:09:31.000Z,1031.48
2023-04-18T03:10:31.000Z,1031.49
2023-04-18T03:11:31.000Z,1031.44
2023-04-18T03:12:32.000Z,1031.47
2023-04-18T03:13:32.000Z,1031.45
2023-04-18T03:14:33.000Z,1031.44
2023-04-18T03:15:33.000Z,1031.41
2023-04-18T03:16:33.000Z,1031.45
2023-04-18T03:17:34.000Z,1031.45
2023-04-18T03:18:34.000Z,1031.42
2023-04-18T03:19:34.000Z,1031.43
2023-04-18T03:20:35.000Z,1031.47
2023-04-18T03:21:35.000Z,1031.46
2023-04-18T03:22:35.000Z,1031.38
2023-04-18T03:23:36.000Z,1031.46
2023-04-18T03:24:36.000Z,1031.42
2023-04-18T03:25:37.000Z,1031.48
2023-04-18T03:26:37.000Z,1031.43
2023-04-18T03:27:37.000Z,1031.49
2023-04-18T03:28:38.000Z,1031.43
2023-04-18T03:29:38.000Z,1031.46
2023-04-18T03:30:39.000Z,1031.4
2023-04-18T03:31:39.000Z,1031.41
2023-04-18T03:32:39.000Z,1031.5
2023-04-18T03:33:40.000Z,1031.5
2023-04-18T03:34:40.000Z,1031.51
2023-04-18T03:35:40.000Z,1031.5
2023-04-18T03:36:41.000Z,1031.5
2023-04-18T03:37:41.000Z,1031.52
2023-04-18T03:38:42.000Z,1031.52
2023-04-18T03:39:42.000Z,1031.54
2023-04-18T03:40:43.000Z,1031.56
2023-04-18T03:41:43.000Z,1031.53
2023-04-18T03:42:43.000Z,1031.59
2023-04-18T03:43:44.000Z,1031.59
2023-04-18T03:44:44.000Z,1031.61
2023-04-18T03:45:44.000Z,1031.59
2023-04-18T03:46:45.000Z,1031.61
2023-04-18T03:47:45.000Z,1031.61
2023-04-18T03:48:46.000Z,1031.6
2023-04-18T03:49:46.000Z,1031.61
2023-04-18T03:50:46.000Z,1031.61
2023-04-18T03:51:47.000Z,1031.62
2023-04-18T03:52:47.000Z,1031.66
2023-04-18T03:53:47.000Z,1031.7
2023-04-18T03:54:48.000Z,1031.67
2023-04-18T03:55:48.000Z,1031.63
2023-04-18T03:56:49.000Z,1031.65
2023-04-18T03:57:49.000Z,1031.67
2023-04-18T03:58:49.000Z,1031.66
2023-04-18T03:59:50.000Z,1031.69
2023-04-18T04:00:50.000Z,1031.73
2023-04-18T04:01:51.000Z,1031.68
2023-04-18T04:02:51.000Z,1031.71
2023-04-18T04:03:51.000Z,1031.72
2023-04-18T04:04:52.000Z,1031.73
2023-04-18T04:05:52.000Z,1031.69
2023-04-18T04:06:53.000Z,1031.73
2023-04-18T04:07:53.000Z,1031.66
2023-04-18T04:08:53.000Z,1031.7
2023-04-18T04:09:54.000Z,1031.67
2023-04-18T04:10:54.000Z,1031.7
2023-04-18T04:11:55.000Z,1031.72
2023-04-18T04:12:55.000Z,1031.74
2023-04-18T04:13:55.000Z,1031.81
2023-04-18T04:14:56.000Z,1031.81
2023-04-18T04:15:56.000Z,1031.82
2023-04-18T04:16:57.000Z,1031.79
2023-04-18T04:17:57.000Z,1031.81
2023-04-18T04:18:57.000Z,1031.84
2023-04-18T04:19:58.000Z,1031.81
2023-04-18T04:20:58.000Z,1031.86
2023-04-18T04:21:58.000Z,1031.74
2023-04-18T04:22:59.000Z,1031.78
2023-04-18T04:23:59.000Z,1031.76
2023-04-18T04:25:00.000Z,1031.77
2023-04-18T04:26:00.000Z,1031.74
2023-04-18T04:27:00.000Z,1031.74
2023-04-18T04:28:01.000Z,1031.86
2023-04-18T04:29:01.000Z,1031.89
2023-04-18T04:30:01.000Z,1031.89
2023-04-18T04:31:02.000Z,1031.9
2023-04-18T04:32:02.000Z,1031.83
2023-04-18T04:33:02.000Z,1031.88
2023-04-18T04:34:03.000Z,1031.9
2023-04-18T04:35:03.000Z,1031.91
2023-04-18T04:36:04.000Z,1031.91
2023-04-18T04:37:04.000Z,1031.89
2023-04-18T04:38:05.000Z,1031.84
2023-04-18T04:39:05.000Z,1031.96
2023-04-18T04:40:05.000Z,1031.91
2023-04-18T04:41:06.000Z,1031.91
2023-04-18T04:42:06.000Z,1031.93
2023-04-18T04:43:06.000Z,1031.89
2023-04-18T04:44:07.000Z,1031.94
2023-04-18T04:45:07.000Z,1031.92
2023-04-18T04:46:07.000Z,1031.95
2023-04-18T04:47:08.000Z,1032.02
2023-04-18T04:48:08.000Z,1032.01
2023-04-18T04:49:08.000Z,1032.01
2023-04-18T04:50:09.000Z,1031.99
2023-04-18T04:51:09.000Z,1032.01
2023-04-18T04:52:10.000Z,1032.01
2023-04-18T04:53:10.000Z,1032.01
2023-04-18T04:54:11.000Z,1032.05
2023-04-18T04:55:11.000Z,1032.08
2023-04-18T04:56:11.000Z,1032.06
2023-04-18T04:57:12.000Z,1032.05
2023-04-18T04:58:12.000Z,1032.05
2023-04-18T04:59:12.000Z,1032.08
2023-04-18T05:00:13.000Z,1032.06
2023-04-18T05:01:13.000Z,1032.09
2023-04-18T05:02:13.000Z,1032.08
2023-04-18T05:03:14.000Z,1032.04
2023-04-18T05:04:14.000Z,1032.04
2023-04-18T05:05:15.000Z,1032.05
2023-04-18T05:06:15.000Z,1032.07
2023-04-18T05:07:15.000Z,1032.1
2023-04-18T05:08:16.000Z,1032.1
2023-04-18T05:09:16.000Z,1032.14
2023-04-18T05:10:16.000Z,1032.12
2023-04-18T05:11:17.000Z,1032.16
2023-04-18T05:12:17.000Z,1032.18
2023-04-18T05:13:18.000Z,1032.13
2023-04-18T05:14:18.000Z,1032.23
2023-04-18T05:15:18.000Z,1032.23
2023-04-18T05:16:19.000Z,1032.14
2023-04-18T05:17:19.000Z,1032.23
2023-04-18T05:18:20.000Z,1032.22
2023-04-18T05:19:20.000Z,1032.23
2023-04-18T05:20:20.000Z,1032.31
2023-04-18T05:21:21.000Z,1032.28
2023-04-18T05:22:21.000Z,1032.31
2023-04-18T05:23:21.000Z,1032.27
2023-04-18T05:24:22.000Z,1032.26
2023-04-18T05:25:22.000Z,1032.24
2023-04-18T05:26:23.000Z,1032.3
2023-04-18T05:27:23.000Z,1032.35
2023-04-18T05:28:23.000Z,1032.28
2023-04-18T05:29:24.000Z,1032.28
2023-04-18T05:30:24.000Z,1032.24
2023-04-18T05:31:25.000Z,1032.33
2023-04-18T05:32:25.000Z,1032.29
2023-04-18T05:33:25.000Z,1032.31
2023-04-18T05:34:26.000Z,1032.3
2023-04-18T05:35:26.000Z,1032.28
2023-04-18T05:36:27.000Z,1032.3
2023-04-18T05:37:27.000Z,1032.34
2023-04-18T05:38:27.000Z,1032.32
2023-04-18T05:39:28.000Z,1032.32
2023-04-18T05:40:28.000Z,1032.3
2023-04-18T05:41:28.000Z,1032.35
2023-04-18T05:42:29.000Z,1032.3
2023-04-18T05:43:29.000Z,1032.35
2023-04-18T05:44:30.000Z,1032.35
2023-04-18T05:45:30.000Z,1032.31
2023-04-18T05:46:30.000Z,1032.35
2023-04-18T05:47:31.000Z,1032.37
2023-04-18T05:48:31.000Z,1032.32
2023-04-18T05:49:31.000Z,1032.35
2023-04-18T05:50:32.000Z,1032.39
2023-04-18T05:51:32.000Z,1032.35
2023-04-18T05:52:33.000Z,1032.4
2023-04-18T05:53:33.000Z,1032.39
2023-04-18T05:54:33.000Z,1032.41
2023-04-18T05:55:34.000Z,1032.42
2023-04-18T05:56:34.000Z,1032.42
2023-04-18T05:57:34.000Z,1032.47
2023-04-18T05:58:35.000Z,1032.37
2023-04-18T05:59:35.000Z,1032.37
2023-04-18T06:00:36.000Z,1032.42
2023-04-18T06:01:36.000Z,1032.4
2023-04-18T06:02:36.000Z,1032.42
2023-04-18T06:03:37.000Z,1032.35
2023-04-18T06:04:37.000Z,1032.42
2023-04-18T06:05:38.000Z,1032.39
2023-04-18T06:06:38.000Z,1032.44
2023-04-18T06:07:38.000Z,1032.47
2023-04-18T06:08:39.000Z,1032.47
2023-04-18T06:09:39.000Z,1032.5
2023-04-18T06:10:39.000Z,1032.47
2023-04-18T06:11:40.000Z,1032.42
2023-04-18T06:12:40.000Z,1032.48
2023-04-18T06:13:40.000Z,1032.53
2023-04-18T06:14:41.000Z,1032.53
2023-04-18T06:15:41.000Z,1032.52
2023-04-18T06:16:42.000Z,1032.55
2023-04-18T06:17:42.000Z,1032.46
2023-04-18T06:18:42.000Z,1032.47
2023-04-18T06:19:43.000Z,1032.46
2023-04-18T06:20:43.000Z,1032.51
2023-04-18T06:21:44.000Z,1032.5
2023-04-18T06:22:44.000Z,1032.53
2023-04-18T06:23:45.000Z,1032.51
2023-04-18T06:24:45.000Z,1032.49
2023-04-18T06:25:45.000Z,1032.46
2023-04-18T06:26:46.000Z,1032.39
2023-04-18T06:27:46.000Z,1032.55
2023-04-18T06:28:46.000Z,1032.48
2023-04-18T06:29:47.000Z,1032.49
2023-04-18T06:30:47.000Z,1032.5
2023-04-18T06:31:47.000Z,1032.44
2023-04-18T06:32:48.000Z,1032.48
2023-04-18T06:33:48.000Z,1032.48
2023-04-18T06:34:49.000Z,1032.49
2023-04-18T06:35:49.000Z,1032.51
2023-04-18T06:36:49.000Z,1032.5
2023-04-18T06:37:50.000Z,1032.45
2023-04-18T06:38:50.000Z,1032.53
2023-04-18T06:39:50.000Z,1032.54
2023-04-18T06:40:51.000Z,1032.57
2023-04-18T06:41:51.000Z,1032.57
2023-04-18T06:42:52.000Z,1032.64
2023-04-18T06:43:52.000Z,1032.57
2023-04-18T06:44:52.000Z,1032.55
2023-04-18T06:45:53.000Z,1032.6
2023-04-18T06:46:53.000Z,1032.65
2023-04-18T06:47:53.000Z,1032.59
2023-04-18T06:48:54.000Z,1032.57
2023-04-18T06:49:54.000Z,1032.69
2023-04-18T06:50:54.000Z,1032.67
2023-04-18T06:51:55.000Z,1032.57
2023-04-18T06:52:55.000Z,1032.6
2023-04-18T06:53:56.000Z,1032.63
2023-04-18T06:54:56.000Z,1032.64
2023-04-18T06:55:56.000Z,1032.62
2023-04-18T06:56:57.000Z,1032.6
2023-04-18T06:57:57.000Z,1032.6
2023-04-18T06:58:58.000Z,1032.61
2023-04-18T06:59:58.000Z,1032.57
2023-04-18T07:00:58.000Z,1032.61
2023-04-18T07:01:59.000Z,1032.59
2023-04-18T07:02:59.000Z,1032.61
2023-04-18T07:03:59.000Z,1032.58
2023-04-18T07:05:00.000Z,1032.58
2023-04-18T07:06:00.000Z,1032.64
2023-04-18T07:07:01.000Z,1032.57
2023-04-18T07:08:01.000Z,1032.62
2023-04-18T07:09:01.000Z,1032.61
2023-04-18T07:10:02.000Z,1032.6
2023-04-18T07:11:02.000Z,1032.69
2023-04-18T07:12:02.000Z,1032.64
2023-04-18T07:13:03.000Z,1032.67
2023-04-18T07:14:03.000Z,1032.63
2023-04-18T07:15:04.000Z,1032.64
2023-04-18T07:16:04.000Z,1032.64
2023-04-18T07:17:04.000Z,1032.66
2023-04-18T07:18:05.000Z,1032.67
2023-04-18T07:19:05.000Z,1032.63
2023-04-18T07:20:05.000Z,1032.63
2023-04-18T07:21:06.000Z,1032.75
2023-04-18T07:22:07.000Z,1032.69
2023-04-18T07:23:08.000Z,1032.7
2023-04-18T07:24:08.000Z,1032.71
2023-04-18T07:25:08.000Z,1032.71
2023-04-18T07:26:09.000Z,1032.73
2023-04-18T07:27:09.000Z,1032.69
2023-04-18T07:28:09.000Z,1032.77
2023-04-18T07:29:10.000Z,1032.72
2023-04-18T07:30:10.000Z,1032.73
2023-04-18T07:31:11.000Z,1032.75
2023-04-18T07:32:11.000Z,1032.73
2023-04-18T07:33:11.000Z,1032.74
2023-04-18T07:34:12.000Z,1032.76
2023-04-18T07:35:12.000Z,1032.81
2023-04-18T07:36:12.000Z,1032.82
2023-04-18T07:37:13.000Z,1032.8
2023-04-18T07:38:13.000Z,1032.76
2023-04-18T07:39:13.000Z,1032.73
2023-04-18T07:40:14.000Z,1032.75
2023-04-18T07:41:14.000Z,1032.79
2023-04-18T07:42:15.000Z,1032.7
2023-04-18T07:43:15.000Z,1032.75
2023-04-18T07:44:15.000Z,1032.74
2023-04-18T07:45:16.000Z,1032.68
2023-04-18T07:46:16.000Z,1032.72
2023-04-18T07:47:16.000Z,1032.67
2023-04-18T07:48:17.000Z,1032.77
2023-04-18T07:49:17.000Z,1032.76
2023-04-18T07:50:18.000Z,1032.76
2023-04-18T07:51:18.000Z,1032.71
2023-04-18T07:52:18.000Z,1032.68
2023-04-18T07:53:19.000Z,1032.76
2023-04-18T07:54:19.000Z,1032.73
2023-04-18T07:55:20.000Z,1032.76
2023-04-18T07:56:20.000Z,1032.75
2023-04-18T07:57:20.000Z,1032.72
2023-04-18T07:58:21.000Z,1032.78
2023-04-18T07:59:21.000Z,1032.76
2023-04-18T08:00:21.000Z,1032.76
2023-04-18T08:01:22.000Z,1032.78
2023-04-18T08:02:22.000Z,1032.74
2023-04-18T08:03:22.000Z,1032.76
2023-04-18T08:04:23.000Z,1032.74
2023-04-18T08:05:23.000Z,1032.78
2023-04-18T08:06:24.000Z,1032.81
2023-04-18T08:07:24.000Z,1032.8
2023-04-18T08:08:24.000Z,1032.78
2023-04-18T08:09:25.000Z,1032.81
2023-04-18T08:10:25.000Z,1032.75
2023-04-18T08:11:25.000Z,1032.8
2023-04-18T08:12:26.000Z,1032.86
2023-04-18T08:13:26.000Z,1032.84
2023-04-18T08:14:26.000Z,1032.86
2023-04-18T08:15:27.000Z,1032.8
2023-04-18T08:16:27.000Z,1032.8
2023-04-18T08:17:28.000Z,1032.73
2023-04-18T08:18:28.000Z,1032.72
2023-04-18T08:19:28.000Z,1032.76
2023-04-18T08:20:29.000Z,1032.75
2023-04-18T08:21:29.000Z,1032.8
2023-04-18T08:22:30.000Z,1032.88
2023-04-18T08:23:30.000Z,1032.92
2023-04-18T08:24:30.000Z,1032.85
2023-04-18T08:25:31.000Z,1032.89
2023-04-18T08:26:31.000Z,1032.86
2023-04-18T08:27:31.000Z,1032.88
2023-04-18T08:28:32.000Z,1032.95
2023-04-18T08:29:32.000Z,1032.92
2023-04-18T08:30:33.000Z,1032.94
2023-04-18T08:31:33.000Z,1032.91
2023-04-18T08:32:33.000Z,1032.92
2023-04-18T08:33:34.000Z,1032.96
2023-04-18T08:34:34.000Z,1033.02
2023-04-18T08:35:35.000Z,1032.95
2023-04-18T08:36:35.000Z,1032.96
2023-04-18T08:37:35.000Z,1032.99
2023-04-18T08:38:36.000Z,1033.01
2023-04-18T08:39:36.000Z,1032.95
2023-04-18T08:40:36.000Z,1032.95
2023-04-18T08:41:37.000Z,1033.0
2023-04-18T08:42:37.000Z,1033.0
2023-04-18T08:43:37.000Z,1033.07
2023-04-18T08:44:38.000Z,1033.04
2023-04-18T08:45:38.000Z,1032.98
2023-04-18T08:46:39.000Z,1033.05
2023-04-18T08:47:39.000Z,1033.07
2023-04-18T08:48:39.000Z,1033.02
2023-04-18T08:49:40.000Z,1033.04
2023-04-18T08:50:40.000Z,1033.11
2023-04-18T08:51:41.000Z,1033.1
2023-04-18T08:52:41.000Z,1033.09
2023-04-18T08:53:41.000Z,1033.08
2023-04-18T08:54:42.000Z,1033.12
2023-04-18T08:55:42.000Z,1033.12
2023-04-18T08:56:42.000Z,1033.11
2023-04-18T08:57:43.000Z,1033.12
2023-04-18T08:58:43.000Z,1033.13
2023-04-18T08:59:45.000Z,1033.18
2023-04-18T09:00:45.000Z,1033.11
2023-04-18T09:01:46.000Z,1033.1
2023-04-18T09:02:46.000Z,1033.1
2023-04-18T09:03:46.000Z,1033.12
2023-04-18T09:04:47.000Z,1033.13
2023-04-18T09:05:47.000Z,1033.13
2023-04-18T09:06:48.000Z,1033.1
2023-04-18T09:07:48.000Z,1033.11
2023-04-18T09:08:48.000Z,1033.05
2023-04-18T09:09:49.000Z,1033.06
2023-04-18T09:10:49.000Z,1033.13
2023-04-18T09:11:50.000Z,1033.14
2023-04-18T09:12:50.000Z,1033.09
2023-04-18T09:13:50.000Z,1033.07
2023-04-18T09:14:51.000Z,1033.1
2023-04-18T09:15:51.000Z,1033.09
2023-04-18T09:16:52.000Z,1033.09
2023-04-18T09:17:52.000Z,1033.09
2023-04-18T09:18:53.000Z,1033.08
2023-04-18T09:19:53.000Z,1033.1
2023-04-18T09:20:53.000Z,1033.07
2023-04-18T09:21:54.000Z,1033.06
2023-04-18T09:22:54.000Z,1033.07
2023-04-18T09:23:54.000Z,1033.04
2023-04-18T09:24:55.000Z,1033.01
2023-04-18T09:25:56.000Z,1033.0
2023-04-18T09:26:56.000Z,1032.91
2023-04-18T09:27:57.000Z,1033.0
2023-04-18T09:28:57.000Z,1033.05
2023-04-18T09:29:58.000Z,1033.06
2023-04-18T09:30:58.000Z,1033.06
2023-04-18T09:31:58.000Z,1033.05
2023-04-18T09:32:59.000Z,1032.96
2023-04-18T09:33:59.000Z,1033.01
2023-04-18T09:35:00.000Z,1032.97
2023-04-18T09:36:00.000Z,1033.0
2023-04-18T09:37:00.000Z,1033.0
2023-04-18T09:38:01.000Z,1033.05
2023-04-18T09:39:01.000Z,1033.06
2023-04-18T09:40:02.000Z,1033.02
2023-04-18T09:41:02.000Z,1032.97
2023-04-18T09:42:02.000Z,1033.1
2023-04-18T09:43:03.000Z,1033.01
2023-04-18T09:44:03.000Z,1032.98
2023-04-18T09:45:03.000Z,1032.98
2023-04-18T09:46:04.000Z,1032.99
2023-04-18T09:47:04.000Z,1032.94
2023-04-18T09:48:05.000Z,1032.93
2023-04-18T09:49:05.000Z,1032.95
2023-04-18T09:50:05.000Z,1032.98
2023-04-18T09:51:06.000Z,1033.02
2023-04-18T09:52:06.000Z,1032.97
2023-04-18T09:53:07.000Z,1032.95
2023-04-18T09:54:07.000Z,1032.89
2023-04-18T09:55:07.000Z,1032.87
2023-04-18T09:56:08.000Z,1032.83
2023-04-18T09:57:08.000Z,1032.88
2023-04-18T09:58:09.000Z,1032.91
2023-04-18T09:59:09.000Z,1032.92
2023-04-18T10:00:09.000Z,1032.87
2023-04-18T10:01:10.000Z,1032.9
2023-04-18T10:02:10.000Z,1032.93
2023-04-18T10:03:11.000Z,1032.95
2023-04-18T10:04:11.000Z,1032.88
2023-04-18T10:05:11.000Z,1032.9
2023-04-18T10:06:12.000Z,1032.9
2023-04-18T10:07:12.000Z,1032.9
2023-04-18T10:08:12.000Z,1032.96
2023-04-18T10:09:13.000Z,1032.91
2023-04-18T10:10:13.000Z,1032.96
2023-04-18T10:11:14.000Z,1032.87
2023-04-18T10:12:14.000Z,1032.89
2023-04-18T10:13:14.000Z,1032.9
2023-04-18T10:14:15.000Z,1032.88
2023-04-18T10:15:15.000Z,1032.84
2023-04-18T10:16:16.000Z,1032.87
2023-04-18T10:17:16.000Z,1032.81
2023-04-18T10:18:16.000Z,1032.75
2023-04-18T10:19:17.000Z,1032.83
2023-04-18T10:20:17.000Z,1032.82
2023-04-18T10:21:17.000Z,1032.76
2023-04-18T10:22:18.000Z,1032.78
2023-04-18T10:23:18.000Z,1032.79
2023-04-18T10:24:19.000Z,1032.73
2023-04-18T10:25:19.000Z,1032.79
2023-04-18T10:26:19.000Z,1032.75
2023-04-18T10:27:20.000Z,1032.7
2023-04-18T10:28:20.000Z,1032.73
2023-04-18T10:29:20.000Z,1032.69
2023-04-18T10:30:21.000Z,1032.69
2023-04-18T10:31:21.000Z,1032.77
2023-04-18T10:32:22.000Z,1032.62
2023-04-18T10:33:22.000Z,1032.69
2023-04-18T10:34:22.000Z,1032.73
2023-04-18T10:35:28.000Z,1032.69
2023-04-18T10:36:33.000Z,1032.7
2023-04-18T10:37:33.000Z,1032.62
2023-04-18T10:38:34.000Z,1032.72
2023-04-18T10:39:34.000Z,1032.7
2023-04-18T10:40:35.000Z,1032.7
2023-04-18T10:41:35.000Z,1032.63
2023-04-18T10:42:35.000Z,1032.68
2023-04-18T10:43:36.000Z,1032.63
2023-04-18T10:44:36.000Z,1032.65
2023-04-18T10:45:37.000Z,1032.67
2023-04-18T10:46:37.000Z,1032.76
2023-04-18T10:47:37.000Z,1032.75
2023-04-18T10:48:38.000Z,1032.77
2023-04-18T10:49:38.000Z,1032.69
2023-04-18T10:50:39.000Z,1032.71
2023-04-18T10:51:39.000Z,1032.72
2023-04-18T10:52:39.000Z,1032.64
2023-04-18T10:53:40.000Z,1032.63
2023-04-18T10:54:40.000Z,1032.67
2023-04-18T10:55:41.000Z,1032.64
2023-04-18T10:56:41.000Z,1032.58
2023-04-18T10:57:41.000Z,1032.56
2023-04-18T10:58:42.000Z,1032.56
2023-04-18T10:59:42.000Z,1032.6
2023-04-18T11:00:43.000Z,1032.61
2023-04-18T11:01:43.000Z,1032.6
2023-04-18T11:02:44.000Z,1032.51
2023-04-18T11:03:44.000Z,1032.55
2023-04-18T11:04:45.000Z,1032.57
2023-04-18T11:05:45.000Z,1032.52
2023-04-18T11:06:45.000Z,1032.52
2023-04-18T11:07:46.000Z,1032.53
2023-04-18T11:08:46.000Z,1032.61
2023-04-18T11:09:47.000Z,1032.56
2023-04-18T11:10:47.000Z,1032.59
2023-04-18T11:11:47.000Z,1032.59
2023-04-18T11:12:48.000Z,1032.59
2023-04-18T11:13:48.000Z,1032.59
2023-04-18T11:14:49.000Z,1032.55
2023-04-18T11:15:49.000Z,1032.59
2023-04-18T11:16:50.000Z,1032.55
2023-04-18T11:17:50.000Z,1032.56
2023-04-18T11:18:50.000Z,1032.54
2023-04-18T11:19:51.000Z,1032.58
2023-04-18T11:20:51.000Z,1032.59
2023-04-18T11:21:52.000Z,1032.63
2023-04-18T11:22:52.000Z,1032.62
2023-04-18T11:23:52.000Z,1032.63
2023-04-18T11:24:53.000Z,1032.59
2023-04-18T11:25:53.000Z,1032.61
2023-04-18T11:26:53.000Z,1032.62
2023-04-18T11:27:54.000Z,1032.54
2023-04-18T11:28:54.000Z,1032.6
2023-04-18T11:29:55.000Z,1032.6
2023-04-18T11:30:55.000Z,1032.58
2023-04-18T11:31:56.000Z,1032.59
2023-04-18T11:32:56.000Z,1032.61
2023-04-18T11:33:57.000Z,1032.54
2023-04-18T11:34:57.000Z,1032.54
2023-04-18T11:35:57.000Z,1032.58
2023-04-18T11:36:58.000Z,1032.56
2023-04-18T11:37:58.000Z,1032.58
2023-04-18T11:38:59.000Z,1032.57
2023-04-18T11:39:59.000Z,1032.49
2023-04-18T11:41:00.000Z,1032.52
2023-04-18T11:42:00.000Z,1032.56
2023-04-18T11:43:02.000Z,1032.58
2023-04-18T11:44:03.000Z,1032.63
2023-04-18T11:45:03.000Z,1032.59
2023-04-18T11:46:03.000Z,1032.58
2023-04-18T11:47:04.000Z,1032.54
2023-04-18T11:48:04.000Z,1032.61
2023-04-18T11:49:05.000Z,1032.61
2023-04-18T11:50:05.000Z,1032.66
2023-04-18T11:51:05.000Z,1032.64
2023-04-18T11:52:06.000Z,1032.65
2023-04-18T11:53:06.000Z,1032.61
2023-04-18T11:54:07.000Z,1032.59
2023-04-18T11:55:07.000Z,1032.64
2023-04-18T11:56:07.000Z,1032.62
2023-04-18T11:57:08.000Z,1032.65
2023-04-18T11:58:08.000Z,1032.65
2023-04-18T11:59:09.000Z,1032.65
2023-04-18T12:00:09.000Z,1032.63
2023-04-18T12:01:10.000Z,1032.56
2023-04-18T12:02:10.000Z,1032.66
2023-04-18T12:03:11.000Z,1032.67
2023-04-18T12:04:11.000Z,1032.63
2023-04-18T12:05:11.000Z,1032.57
2023-04-18T12:06:12.000Z,1032.6
2023-04-18T12:07:12.000Z,1032.61
2023-04-18T12:08:13.000Z,1032.55
2023-04-18T12:09:13.000Z,1032.58
2023-04-18T12:10:14.000Z,1032.59
2023-04-18T12:11:14.000Z,1032.55
2023-04-18T12:12:14.000Z,1032.57
2023-04-18T12:13:15.000Z,1032.56